You are not logged in, Click here to log in
ICAO: LFPG Country: 法國首都巴黎
Latitude: 49.0097 Longitude: 2.54778
Total Arrivals: 16 Total Departures: 16
Latest Arrival: BRN922FD (EGBB-LFPG)Jason. Li Latest Departure: FI545 (LFPG-BIKF)Jason. Li
Scenery:
METAR : LFPG 232300Z 29007KT CAVOK 15/10 Q1017 NOSIG

巴黎夏爾·戴高樂機場CDG